KSBD/SBD METAR and TAF weather

Enter ICAO airport designator
Station Type Date Time Source
KSBD METAR 2019/10/22 16:50 UTC NOAA

KSBD 221650Z 00000KT 10SM SKC 27/M02 A3014


Station Type Date Time Source
KSBD Decoded METAR 2019/10/22 16:50 UTC NOAA

Norton Air Force Base / San Bern, CA, United States (KSBD) 34-06N 117-14W
Oct 22, 2019 - 12:50 PM EDT / 2019.10.22 1650 UTC
Wind: Calm:0
Visibility: 10 mile(s):0
Sky conditions: clear
Temperature: 80 F (27 C)
Dew Point: 28 F (-2 C)
Relative Humidity: 14%
Pressure (altimeter): 30.14 in. Hg (1020 hPa)
ob: KSBD 221650Z 00000KT 10SM SKC 27/M02 A3014
cycle: 17

Station Type Date Time Source
KSBD TAF 2019/10/22 12:24 UTC NOAA

TAF KSBD 221123Z 2212/2312 VRB05KT P6SM SKC

Example: see airport list